地図

経路データ

SID SEASON NUMBER BASIN SUBBASIN NAME ISO_TIME NATURE LAT LON WMO_WIND WMO_PRES WMO_AGENCY TRACK_TYPE DIST2LAND LANDFALL IFLAG USA_AGENCY USA_ATCF_ID USA_LAT USA_LON USA_RECORD USA_STATUS USA_WIND USA_PRES USA_SSHS USA_R34_NE USA_R34_SE USA_R34_SW USA_R34_NW USA_R50_NE USA_R50_SE USA_R50_SW USA_R50_NW USA_R64_NE USA_R64_SE USA_R64_SW USA_R64_NW USA_POCI USA_ROCI USA_RMW USA_EYE TOKYO_LAT TOKYO_LON TOKYO_GRADE TOKYO_WIND TOKYO_PRES TOKYO_R50_DIR TOKYO_R50_LONG TOKYO_R50_SHORT TOKYO_R30_DIR TOKYO_R30_LONG TOKYO_R30_SHORT TOKYO_LAND CMA_LAT CMA_LON CMA_CAT CMA_WIND CMA_PRES HKO_LAT HKO_LON HKO_CAT HKO_WIND HKO_PRES NEWDELHI_LAT NEWDELHI_LON NEWDELHI_GRADE NEWDELHI_WIND NEWDELHI_PRES NEWDELHI_CI NEWDELHI_DP NEWDELHI_POCI REUNION_LAT REUNION_LON REUNION_TYPE REUNION_WIND REUNION_PRES REUNION_TNUM REUNION_CI REUNION_RMW REUNION_R34_NE REUNION_R34_SE REUNION_R34_SW REUNION_R34_NW REUNION_R50_NE REUNION_R50_SE REUNION_R50_SW REUNION_R50_NW REUNION_R64_NE REUNION_R64_SE REUNION_R64_SW REUNION_R64_NW BOM_LAT BOM_LON BOM_TYPE BOM_WIND BOM_PRES BOM_TNUM BOM_CI BOM_RMW BOM_R34_NE BOM_R34_SE BOM_R34_SW BOM_R34_NW BOM_R50_NE BOM_R50_SE BOM_R50_SW BOM_R50_NW BOM_R64_NE BOM_R64_SE BOM_R64_SW BOM_R64_NW BOM_ROCI BOM_POCI BOM_EYE BOM_POS_METHOD BOM_PRES_METHOD NADI_LAT NADI_LON NADI_CAT NADI_WIND NADI_PRES WELLINGTON_LAT WELLINGTON_LON WELLINGTON_WIND WELLINGTON_PRES DS824_LAT DS824_LON DS824_STAGE DS824_WIND DS824_PRES TD9636_LAT TD9636_LON TD9636_STAGE TD9636_WIND TD9636_PRES TD9635_LAT TD9635_LON TD9635_WIND TD9635_PRES TD9635_ROCI NEUMANN_LAT NEUMANN_LON NEUMANN_CLASS NEUMANN_WIND NEUMANN_PRES MLC_LAT MLC_LON MLC_CLASS MLC_WIND MLC_PRES USA_GUST BOM_GUST BOM_GUST_PER REUNION_GUST REUNION_GUST_PER USA_SEAHGT USA_SEARAD_NE USA_SEARAD_SE USA_SEARAD_SW USA_SEARAD_NW STORM_SPEED STORM_DIR
1949239N21155 1949 60 WP MM KITTY 1949-08-27 00:00:00 TS 20.5000 155.100 main 2180 2154 __O___________ -1 20.5000 155.100 1 29 1000 6 0
1949239N21155 1949 60 WP MM KITTY 1949-08-27 03:00:00 TS 20.8050 155.095 main 2154 2127 __P___________ -1 20.8050 155.095 1 29 1000 6 1
1949239N21155 1949 60 WP MM KITTY 1949-08-27 06:00:00 TS 21.1000 155.100 main 2127 2110 __O___________ -1 21.1000 155.100 1 29 1000 6 1
1949239N21155 1949 60 WP MM KITTY 1949-08-27 09:00:00 TS 21.3850 155.115 main 2102 2024 __P___________ -1 21.3850 155.115 1 29 1000 14 2
1949239N21155 1949 60 WP MM KITTY 1949-08-27 12:00:00 TS 22.5000 155.150 main 2015 1946 O_O______OOO__ jtwc_wp WP091949 23.3000 155.200 45 0 21.7000 155.100 1 29 1000 23.3000 155.200 TC 45 23.3000 155.200 2 45 23.3000 155.200 45 999 120 17 349
1949239N21155 1949 60 WP MM KITTY 1949-08-27 15:00:00 TS 23.0310 154.776 main 1946 1879 P_P______PPP__ WP091949 23.5105 154.640 50 0 22.0925 155.030 1 33 995 23.5105 154.640 TC 50 23.4700 154.676 2 50 23.5105 154.640 50 998 180 12 319
1949239N21155 1949 60 WP MM KITTY 1949-08-27 18:00:00 TS 23.3890 154.310 main 1879 1835 O_O______OPO__ jtwc_wp WP091949 23.7000 154.100 55 0 22.5000 154.900 2 38 990 23.7000 154.100 TC 55 23.6412 154.151 2 55 23.7000 154.100 55 997 240 11 305
1949239N21155 1949 60 WP MM KITTY 1949-08-27 21:00:00 TS 23.6462 153.831 main 1828 1784 P_P______PPP__ WP091949 23.8573 153.592 60 0 22.8423 154.752 2 48 985 23.8573 153.592 TC 60 23.8169 153.626 2 60 23.8573 153.592 60 996 240 10 298
1949239N21155 1949 60 WP MM KITTY 1949-08-28 00:00:00 TS 23.8400 153.380 main 1784 1734 O_O______OOO__ jtwc_wp WP091949 24.0000 153.100 65 1 23.2000 154.500 3 58 980 24.0000 153.100 TC 65 24.0000 153.100 3 65 24.0000 153.100 65 996 240 9 295
1949239N21155 1949 60 WP MM KITTY 1949-08-28 03:00:00 TS 24.0423 152.893 main 1734 1675 P_P______PPP__ WP091949 24.1273 152.600 65 1 23.6351 154.088 3 58 980 24.1273 152.600 TC 65 24.1941 152.576 3 65 24.1273 152.600 65 995 210 10 296
1949239N21155 1949 60 WP MM KITTY 1949-08-28 06:00:00 TS 24.2809 152.392 main 1675 1617 O_O______OPO__ jtwc_wp WP091949 24.3000 152.100 65 1 24.1000 153.600 3 58 980 24.3000 152.100 TC 65 24.4048 152.062 3 65 24.3000 152.100 65 994 180 11 301
1949239N21155 1949 60 WP MM KITTY 1949-08-28 09:00:00 TS 24.5855 151.900 main 1617 1559 P_P______PPP__ WP091949 24.5774 151.593 65 1 24.5573 153.157 3 58 980 24.5774 151.593 TC 65 24.6380 151.567 3 65 24.5774 151.593 65 992 240 11 306
1949239N21155 1949 60 WP MM KITTY 1949-08-28 12:00:00 TS 24.9200 151.420 main 1559 1507 O_O______OOO__ jtwc_wp WP091949 24.9000 151.100 65 1 25.0000 152.700 3 58 980 24.9000 151.100 TC 65 24.9000 151.100 4 65 24.9000 151.100 65 991 300 11 307
1949239N21155 1949 60 WP MM KITTY 1949-08-28 15:00:00 TS 25.2352 150.955 main 1507 1450 P_P______PPP__ WP091949 25.1924 150.627 65 1 25.4072 152.222 3 58 980 25.1924 150.627 TC 65 25.1914 150.671 4 65 25.1924 150.627 65 990 330 10 308
1949239N21155 1949 60 WP MM KITTY 1949-08-28 18:00:00 TS 25.5623 150.514 main 1441 1390 O_O______OPO__ jtwc_wp WP091949 25.5000 150.200 65 1 25.8000 151.700 3 58 980 25.5000 150.200 TC 65 25.5116 150.269 4 65 25.5000 150.200 65 989 360 10 312
1949239N21155 1949 60 WP MM KITTY 1949-08-28 21:00:00 TS 25.9185 150.105 main 1390 1330 P_P______PPP__ WP091949 25.8422 149.842 65 1 26.2149 151.115 3 58 980 25.8422 149.842 TC 65 25.8509 149.883 4 65 25.8422 149.842 65 987 330 10 314
1949239N21155 1949 60 WP MM KITTY 1949-08-29 00:00:00 TS 26.2800 149.700 main 1330 1279 O_O______OOO__ jtwc_wp WP091949 26.2000 149.500 65 1 26.6000 150.500 3 58 980 26.2000 149.500 TC 65 26.2000 149.500 4 65 26.2000 149.500 65 986 300 10 313
1949239N21155 1949 60 WP MM KITTY 1949-08-29 03:00:00 TS 26.6244 149.273 main 1279 1228 P_P______PPP__ WP091949 26.5499 149.107 65 1 26.9221 149.907 3 58 980 26.5499 149.107 TC 65 26.5498 149.135 4 66 26.5499 149.107 65 985 330 10 311
1949239N21155 1949 60 WP MM KITTY 1949-08-29 06:00:00 TS 26.9611 148.833 main 1213 1162 O_O______OPO__ jtwc_wp WP091949 26.9000 148.700 65 1 27.2000 149.300 3 58 980 26.9000 148.700 TC 65 26.9057 148.766 4 67 26.9000 148.700 65 984 360 10 311
1949239N21155 1949 60 WP MM KITTY 1949-08-29 09:00:00 TS 27.3005 148.399 main 1162 1105 P_P______PPP__ WP091949 27.2647 148.315 67 1 27.4493 148.687 3 58 980 27.2647 148.315 TC 67 27.2589 148.363 4 68 27.2647 148.315 67 982 390 10 309
1949239N21155 1949 60 WP MM KITTY 1949-08-29 12:00:00 TS 27.6200 147.920 main 1105 1048 O_O______OOO__ jtwc_wp WP091949 27.6000 147.900 70 1 27.7000 148.000 3 58 980 27.6000 147.900 TC 70 27.6000 147.900 4 70 27.6000 147.900 70 980 420 11 303
1949239N21155 1949 60 WP MM KITTY 1949-08-29 15:00:00 TS 27.8918 147.376 main 1048 995 P_P______PPP__ WP091949 27.8495 147.452 72 1 27.9929 147.158 3 58 980 27.8495 147.452 TC 72 27.9179 147.367 4 72 27.8495 147.452 72 978 420 12 298
1949239N21155 1949 60 WP MM KITTY 1949-08-29 18:00:00 TS 28.1643 146.754 main 986 920 O_O______OPO__ jtwc_wp WP091949 28.1000 146.900 75 1 28.3000 146.300 3 58 980 28.1000 146.900 TC 75 28.2214 146.769 4 75 28.1000 146.900 75 976 420 13 297
1949239N21155 1949 60 WP MM KITTY 1949-08-29 21:00:00 TS 28.4910 146.064 main 920 849 P_P______PPP__ WP091949 28.4497 146.210 77 1 28.5918 145.577 3 63 977 28.4497 146.210 TC 77 28.5142 146.111 4 77 28.4497 146.210 77 973 420 14 297
1949239N21155 1949 60 WP MM KITTY 1949-08-30 00:00:00 TS 28.8200 145.300 main 849 778 O_O______OOO__ jtwc_wp WP091949 28.8000 145.400 80 1 28.9000 144.900 4 68 975 28.8000 145.400 TC 80 28.8000 145.400 4 80 28.8000 145.400 80 971 420 15 293
1949239N21155 1949 60 WP MM KITTY 1949-08-30 03:00:00 TS 29.0861 144.456 main 778 719 P_P______PPP__ WP091949 29.0579 144.492 85 2 29.2423 144.192 4 72 972 29.0579 144.492 TC 85 29.0146 144.610 4 87 29.0579 144.492 85 966 390 16 290
1949239N21155 1949 60 WP MM KITTY 1949-08-30 06:00:00 TS 29.3464 143.616 main 714 654 O_O______OPO__ jtwc_wp WP091949 29.3000 143.600 90 2 29.6000 143.500 4 77 970 29.3000 143.600 TC 90 29.2322 143.780 4 95 29.3000 143.600 90 962 360 15 291
1949239N21155 1949 60 WP MM KITTY 1949-08-30 09:00:00 TS 29.6211 142.877 main 654 587 P_P______PPP__ WP091949 29.5617 142.862 100 3 29.9121 142.841 4 77 970 29.5617 142.862 TC 100 29.5084 142.960 4 102 29.5617 142.862 100 958 330 14 297
1949239N21155 1949 60 WP MM KITTY 1949-08-30 12:00:00 TS 29.9800 142.200 main 587 526 O_O______OOO__ jtwc_wp WP091949 29.9000 142.200 110 3 30.3000 142.200 4 77 970 29.9000 142.200 TC 110 29.9000 142.200 4 110 29.9000 142.200 110 954 300 14 305
1949239N21155 1949 60 WP MM KITTY 1949-08-30 15:00:00 TS 30.4491 141.515 main 523 444 P_P______PPP__ WP091949 30.3099 141.519 110 3 30.8550 141.528 4 82 965 30.3099 141.519 TC 110 30.4609 141.491 4 105 30.3099 141.519 110 953 360 16 314
1949239N21155 1949 60 WP MM KITTY 1949-08-30 18:00:00 TS 31.0684 140.891 main 433 345 O_O______OPO__ jtwc_wp WP091949 30.9000 140.900 110 3 31.5000 140.900 5 87 960 30.9000 140.900 TC 110 31.1422 140.853 4 100 30.9000 140.900 110 952 420 18 325
1949239N21155 1949 60 WP MM KITTY 1949-08-30 21:00:00 TS 31.8724 140.334 main 331 234 P_P______PPP__ WP091949 31.7774 140.334 100 3 32.1272 140.354 5 87 958 31.7774 140.334 TC 100 31.9022 140.313 4 95 31.7774 140.334 100 953 360 19 333
1949239N21155 1949 60 WP MM KITTY 1949-08-31 00:00:00 TS 32.7200 139.900 main 234 152 O_O______OOO__ jtwc_wp WP091949 32.7000 139.900 90 2 32.8000 139.900 5 87 957 32.7000 139.900 TC 90 32.7000 139.900 4 90 32.7000 139.900 90 954 300 16 338
1949239N21155 1949 60 WP MM KITTY 1949-08-31 03:00:00 TS 33.3909 139.602 main 152 86 P_P______PPP__ WP091949 33.3422 139.631 82 1 33.5349 139.490 5 82 954 33.3422 139.631 TC 82 33.3929 139.625 4 80 33.3422 139.631 82 957 270 14 344
1949239N21155 1949 60 WP MM KITTY 1949-08-31 06:00:00 TS 34.0853 139.436 main 76 29 O_O______OPO__ jtwc_wp WP091949 34.0000 139.500 75 1 34.3000 139.200 4 77 952 34.0000 139.500 TC 75 34.1263 139.479 4 70 34.0000 139.500 75 960 240 15 352
1949239N21155 1949 60 WP MM KITTY 1949-08-31 09:00:00 TS 34.8779 139.361 main 27 0 P_P______PPP__ WP091949 34.8376 139.441 62 0 34.9300 139.061 4 67 963 34.8376 139.441 TC 62 34.9466 139.420 4 60 34.8376 139.441 62 965 270 18 357
1949239N21155 1949 60 WP MM KITTY 1949-08-31 12:00:00 TS 35.8800 139.320 main 0 0 O_O______OOO__ jtwc_wp WP091949 35.9000 139.400 50 0 35.8000 139.000 3 58 975 35.9000 139.400 TC 50 35.9000 139.400 2 50 35.9000 139.400 50 971 300 24 356
1949239N21155 1949 60 WP MM KITTY 1949-08-31 15:00:00 TS 37.2221 139.182 main 0 0 P_P______PPP__ WP091949 37.2702 139.230 50 0 37.2826 138.837 3 58 976 37.2702 139.230 TC 50 37.0177 139.382 2 48 37.2702 139.230 50 975 300 28 356
1949239N21155 1949 60 WP MM KITTY 1949-08-31 18:00:00 TS 38.6743 139.078 main 36 36 O_O______OPO__ jtwc_wp WP091949 38.7000 139.100 50 0 38.9000 138.800 3 58 978 38.7000 139.100 TC 50 38.2705 139.358 2 47 38.7000 139.100 50 979 300 26 358
1949239N21155 1949 60 WP MM KITTY 1949-08-31 21:00:00 TS 39.8569 139.091 main 51 51 P_P______PPP__ WP091949 39.8190 139.056 47 0 40.0926 139.074 3 53 981 39.8190 139.056 TC 47 39.6133 139.331 2 46 39.8190 139.056 47 981 270 24 5
1949239N21155 1949 60 WP MM KITTY 1949-09-01 00:00:00 TS 41.0750 139.350 main 60 0 O_O______OOO__ jtwc_wp WP091949 41.0000 139.300 45 0 41.3000 139.500 3 48 985 41.0000 139.300 TC 45 41.0000 139.300 2 45 41.0000 139.300 45 984 240 29 13
1949239N21155 1949 60 WP MM KITTY 1949-09-01 03:00:00 TS 42.6611 139.970 main 0 0 P_P______P_P__ WP091949 42.6007 140.009 42 0 42.8624 139.879 3 43 986 42.6007 140.009 TC 42 2 42.5003 139.996 42 986 240 34 18
1949239N21155 1949 60 WP MM KITTY 1949-09-01 06:00:00 TS 44.2923 140.785 main 63 13 O_O______O_O__ jtwc_wp WP091949 44.2000 141.000 40 0 44.5000 140.300 2 38 988 44.2000 141.000 TC 40 2 44.2000 141.000 40 988 240 32 21
1949239N21155 1949 60 WP MM KITTY 1949-09-01 09:00:00 TS 45.6598 141.585 main 33 0 P_P______P____ WP091949 45.5152 142.014 40 0 45.9489 140.726 2 989 45.5152 142.014 TC 40 2 28 25
1949239N21155 1949 60 WP MM KITTY 1949-09-01 12:00:00 MX 46.8000 142.433 main 0 0 O_O______O____ jtwc_wp WP091949 46.5000 143.000 40 0 47.4000 141.300 9 990 46.5000 143.000 TC 40 24 28
1949239N21155 1949 60 WP MM KITTY 1949-09-01 15:00:00 MX 47.7669 143.207 main 49 49 P_P______P____ WP091949 47.1081 143.684 37 0 49.0846 142.252 9 992 47.1081 143.684 TC 37 22 28
1949239N21155 1949 60 WP MM KITTY 1949-09-01 18:00:00 MX 48.7400 143.980 main 42 0 O_O______O____ jtwc_wp WP091949 47.5000 144.500 35 0 50.6000 143.200 9 995 47.5000 144.500 TC 35 23 26
1949239N21155 1949 60 WP MM KITTY 1949-09-01 21:00:00 MX 49.7936 144.716 main 44 44 P_P______P____ WP091949 47.8953 145.828 32 -1 51.6919 143.604 9 995 47.8953 145.828 TC 32 24 18
1949239N21155 1949 60 WP MM KITTY 1949-09-02 00:00:00 MX 51.0333 145.167 main 112 107 O_O______O____ jtwc_wp WP091949 48.3000 147.500 30 -1 52.4000 144.000 9 996 48.3000 147.500 TC 30 30 2
1949239N21155 1949 60 WP MM KITTY 1949-09-02 03:00:00 ET 52.7830 144.899 main 106 106 __P___________ WP091949 -1 52.7830 144.899 9 997 TC 20 14
1949239N21155 1949 60 WP MM KITTY 1949-09-02 06:00:00 ET 53.0000 146.000 main 179 179 __O___________ -1 53.0000 146.000 9 998 14 66
1949239N21155 1949 60 WP MM KITTY 1949-09-02 09:00:00 ET 53.3635 147.055 main 253 253 __P___________ -1 53.3635 147.055 9 998 15 62
1949239N21155 1949 60 WP MM KITTY 1949-09-02 12:00:00 ET 53.7000 148.200 main 329 329 __O___________ -1 53.7000 148.200 9 998 15 68
1949239N21155 1949 60 WP MM KITTY 1949-09-02 15:00:00 ET 53.9359 149.464 main 411 330 __P___________ -1 53.9359 149.464 9 999 16 75
1949239N21155 1949 60 WP MM KITTY 1949-09-02 18:00:00 ET 54.1000 150.800 main 324 __O___________ -1 54.1000 150.800 9 1000 16 78

デジタル台風データ・検索

IBTrACS Databaseについて

本データベースは、米国NOAAが公開する1842年以降の世界の熱帯低気圧のベストトラックデータアーカイブInternational Best Track Archive for Climate Stewardship (IBTrACS)を、ウェブで閲覧しやすい形式に変換したものです。

最終更新日:2021-10-08